Time;durP1;ratioP1;P1;durP2;ratioP2;P2;SDS_P1;SDS_P2;PMS_P1;PMS_P2;Temp;Humidity;BMP_temperature;BMP_pressure;BME280_temperature;BME280_humidity;BME280_pressure;Samples;Min_cycle;Max_cycle;Signal;HPM_P1;HPM_P2
2021/07/26 00:00:21;;;;;;;29.00;12.65;;;;;;;14.66;72.73;100332.03;5112115;28;20036;-69
2021/07/26 00:02:47;;;;;;;25.20;12.55;;;;;;;14.64;72.78;100334.81;5112286;28;20046;-69
2021/07/26 00:05:13;;;;;;;26.00;12.75;;;;;;;14.63;72.92;100340.25;5112214;28;20488;-69
2021/07/26 00:07:39;;;;;;;26.00;12.40;;;;;;;14.60;73.11;100338.69;5112333;28;20047;-69
2021/07/26 00:10:06;;;;;;;31.05;12.25;;;;;;;14.60;73.12;100338.69;5112244;28;20051;-69
2021/07/26 00:12:33;;;;;;;28.63;11.82;;;;;;;14.56;73.39;100335.44;5112205;28;20040;-72
2021/07/26 00:15:00;;;;;;;29.58;12.30;;;;;;;14.54;73.37;100333.88;5111919;28;20053;-69
2021/07/26 00:17:26;;;;;;;33.63;12.68;;;;;;;14.54;73.93;100336.53;5111848;28;20052;-68
2021/07/26 00:19:52;;;;;;;31.27;13.05;;;;;;;14.53;73.71;100348.19;5112388;28;20092;-69
2021/07/26 00:22:18;;;;;;;29.23;13.18;;;;;;;14.50;74.07;100343.91;5111967;28;20118;-70
2021/07/26 00:24:44;;;;;;;33.85;13.70;;;;;;;14.48;73.74;100345.03;5112209;28;20055;-70
2021/07/26 00:27:09;;;;;;;29.80;12.95;;;;;;;14.47;73.91;100352.19;5111949;28;20100;-68
2021/07/26 00:29:35;;;;;;;29.25;13.13;;;;;;;14.45;73.80;100343.47;5093839;28;20085;-69
2021/07/26 00:32:01;;;;;;;30.08;13.07;;;;;;;14.45;73.75;100345.28;5112063;28;20427;-69
2021/07/26 00:34:27;;;;;;;31.73;13.00;;;;;;;14.43;73.86;100337.44;5111935;28;20403;-70
2021/07/26 00:36:58;;;;;;;34.20;13.88;;;;;;;14.44;73.54;100343.59;5093705;28;20480;-70
2021/07/26 00:39:26;;;;;;;32.28;13.57;;;;;;;14.42;73.39;100341.06;5093575;28;20101;-72
2021/07/26 00:41:52;;;;;;;;;;;;;;;14.43;73.48;100347.22;5112554;28;20050;-72
2021/07/26 00:44:19;;;;;;;34.30;12.93;;;;;;;14.42;73.00;100351.72;5111779;28;20025;-72
2021/07/26 00:46:46;;;;;;;34.58;13.75;;;;;;;14.42;73.23;100348.19;5111965;28;20099;-71
2021/07/26 00:49:14;;;;;;;27.77;12.70;;;;;;;14.42;72.97;100353.50;5113316;28;20040;-71
2021/07/26 00:51:43;;;;;;;27.98;13.13;;;;;;;14.40;73.16;100349.19;5115306;28;20054;-72
2021/07/26 00:54:09;;;;;;;31.60;12.43;;;;;;;14.39;72.87;100357.28;5096944;28;20138;-72
2021/07/26 00:56:36;;;;;;;38.08;14.07;;;;;;;14.36;73.17;100354.88;5097674;28;20061;-71
2021/07/26 00:59:02;;;;;;;36.00;14.37;;;;;;;14.34;73.51;100356.81;5115127;28;20078;-72
2021/07/26 01:01:28;;;;;;;36.13;14.57;;;;;;;14.31;73.90;100357.09;5115325;28;20067;-70
2021/07/26 01:03:54;;;;;;;42.30;15.65;;;;;;;14.29;74.07;100351.84;5115560;28;20044;-69
2021/07/26 01:06:20;;;;;;;36.20;15.02;;;;;;;14.27;74.08;100359.13;5115349;28;20066;-69
2021/07/26 01:08:46;;;;;;;38.70;14.55;;;;;;;14.27;74.21;100355.63;5115647;28;20036;-69
2021/07/26 01:11:12;;;;;;;29.77;14.60;;;;;;;14.24;74.26;100362.03;5097048;28;20036;-69
2021/07/26 01:13:37;;;;;;;40.95;16.15;;;;;;;14.21;74.59;100357.81;5115641;28;20096;-68
2021/07/26 01:16:04;;;;;;;34.65;17.75;;;;;;;14.21;74.06;100362.31;5115350;28;20040;-70
2021/07/26 01:18:30;;;;;;;38.08;16.83;;;;;;;14.21;74.31;100354.31;5115328;28;20051;-71
2021/07/26 01:21:09;;;;;;;34.03;15.60;;;;;;;14.22;74.56;100356.00;5115308;28;20043;-71
2021/07/26 01:23:42;;;;;;;36.25;16.20;;;;;;;14.18;74.71;100355.41;5115224;28;20047;-68
2021/07/26 01:26:10;;;;;;;38.38;16.23;;;;;;;14.18;75.02;100365.19;5114757;28;20043;-70
2021/07/26 01:28:39;;;;;;;33.95;17.25;;;;;;;14.17;74.72;100358.22;5115347;28;20047;-69
2021/07/26 01:31:05;;;;;;;35.50;17.77;;;;;;;14.17;74.66;100360.88;5097129;28;20050;-70
2021/07/26 01:33:31;;;;;;;35.55;18.35;;;;;;;14.16;74.85;100359.19;5114951;28;20134;-70
2021/07/26 01:35:58;;;;;;;36.63;18.17;;;;;;;14.14;74.78;100353.13;5114931;28;20040;-69
2021/07/26 01:38:24;;;;;;;42.60;19.17;;;;;;;14.14;74.53;100358.44;5096440;28;20044;-69
2021/07/26 01:40:55;;;;;;;52.80;23.17;;;;;;;14.13;74.38;100365.59;5114941;28;20039;-70
2021/07/26 01:43:24;;;;;;;51.88;23.30;;;;;;;14.12;74.35;100369.22;5114723;28;20124;-70
2021/07/26 01:46:10;;;;;;;48.95;25.73;;;;;;;14.11;74.34;100366.69;5114794;28;20130;-69
2021/07/26 01:48:49;;;;;;;51.58;28.42;;;;;;;14.08;74.32;100371.28;5114738;28;20051;-69
2021/07/26 01:51:24;;;;;;;47.83;24.10;;;;;;;14.06;74.49;100377.69;5114569;28;20058;-71
2021/07/26 01:53:50;;;;;;;49.58;24.50;;;;;;;14.00;74.69;100373.69;5096340;28;20050;-69
2021/07/26 01:56:15;;;;;;;52.17;26.20;;;;;;;13.97;74.77;100379.28;5114535;28;20420;-70
2021/07/26 01:58:43;;;;;;;55.80;27.00;;;;;;;13.95;75.25;100386.53;5114409;28;20043;-70
2021/07/26 02:01:08;;;;;;;52.90;25.08;;;;;;;13.94;74.98;100379.50;5125079;27;20528;-70
2021/07/26 02:03:34;;;;;;;56.10;27.92;;;;;;;13.94;75.11;100379.50;5118055;27;20059;-71
2021/07/26 02:06:00;;;;;;;79.03;37.38;;;;;;;13.95;74.92;100381.19;5113626;28;20118;-69
2021/07/26 02:08:26;;;;;;;65.38;33.03;;;;;;;13.98;74.63;100380.97;5113461;28;20074;-70
2021/07/26 02:10:52;;;;;;;60.10;30.38;;;;;;;14.03;74.63;100384.09;5134465;27;20053;-71
2021/07/26 02:13:18;;;;;;;66.28;34.90;;;;;;;14.08;74.53;100387.25;5133568;27;20045;-69
2021/07/26 02:15:43;;;;;;;63.85;30.13;;;;;;;14.12;74.53;100381.66;5134452;27;20072;-69
2021/07/26 02:18:09;;;;;;;57.28;29.40;;;;;;;14.15;74.15;100381.44;5134043;27;20092;-69
2021/07/26 02:20:35;;;;;;;46.00;24.58;;;;;;;14.11;74.48;100395.94;5116576;27;20475;-68
2021/07/26 02:23:01;;;;;;;49.75;25.70;;;;;;;14.13;74.52;100394.84;5134697;27;20084;-69
2021/07/26 02:25:27;;;;;;;56.20;23.77;;;;;;;14.15;74.42;100392.06;5134669;27;20488;-70
2021/07/26 02:27:52;;;;;;;44.53;22.88;;;;;;;14.18;74.22;100391.81;5134680;27;20073;-69
2021/07/26 02:30:18;;;;;;;50.03;25.02;;;;;;;14.19;74.33;100393.50;5134352;27;20042;-68
2021/07/26 02:32:44;;;;;;;45.65;22.85;;;;;;;14.19;74.38;100391.69;5134241;27;20047;-70
2021/07/26 02:35:10;;;;;;;49.38;24.15;;;;;;;14.20;74.25;100389.88;5134539;27;20093;-68
2021/07/26 02:37:36;;;;;;;61.10;30.08;;;;;;;14.23;73.94;100395.78;5134032;27;20051;-68
2021/07/26 02:40:03;;;;;;;59.70;30.05;;;;;;;14.28;74.04;100395.44;5134287;27;20404;-68
2021/07/26 02:42:30;;;;;;;67.63;32.95;;;;;;;14.32;73.83;100391.53;5133269;27;20084;-71
2021/07/26 02:44:56;;;;;;;59.10;30.20;;;;;;;14.36;73.63;100390.31;5133966;27;20433;-70
2021/07/26 02:47:21;;;;;;;73.82;36.75;;;;;;;14.45;73.46;100401.19;5134235;27;20069;-69
2021/07/26 02:49:47;;;;;;;57.35;25.55;;;;;;;14.47;73.51;100397.44;5134209;27;20092;-69
2021/07/26 02:52:13;;;;;;;78.55;41.65;;;;;;;14.48;72.53;100398.25;5133920;27;20043;-69
2021/07/26 02:54:38;;;;;;;91.45;48.05;;;;;;;14.51;72.24;100408.66;5133961;27;20123;-71
2021/07/26 02:57:05;;;;;;;96.82;52.08;;;;;;;14.54;71.37;100405.75;5133873;27;20046;-70
2021/07/26 02:59:32;;;;;;;97.30;50.47;;;;;;;14.63;71.28;100407.66;5133661;27;20055;-67
2021/07/26 03:01:57;;;;;;;91.28;47.15;;;;;;;14.66;70.51;100410.09;5133407;27;20053;-68
2021/07/26 03:04:23;;;;;;;80.13;40.28;;;;;;;14.74;71.00;100406.78;5114612;27;20034;-70
2021/07/26 03:06:49;;;;;;;76.95;38.42;;;;;;;14.81;71.40;100399.97;5133203;27;20043;-70
2021/07/26 03:09:15;;;;;;;78.80;37.80;;;;;;;14.87;71.43;100409.28;5133227;27;20472;-70
2021/07/26 03:12:00;;;;;;;76.82;41.33;;;;;;;14.93;70.99;100414.09;5117604;28;20073;-71
2021/07/26 03:14:25;;;;;;;78.97;40.65;;;;;;;14.96;71.11;100405.00;5133076;27;20570;-71
2021/07/26 03:16:51;;;;;;;89.50;47.95;;;;;;;14.97;71.08;100406.72;5133458;27;20062;-70
2021/07/26 03:19:17;;;;;;;86.90;41.55;;;;;;;15.00;71.04;100401.97;5133540;27;20039;-70
2021/07/26 03:21:42;;;;;;;83.35;39.55;;;;;;;15.07;70.98;100404.13;5133454;27;20043;-70
2021/07/26 03:24:08;;;;;;;79.40;41.65;;;;;;;15.14;70.96;100410.59;5114927;27;20104;-73
2021/07/26 03:26:34;;;;;;;84.47;43.45;;;;;;;15.23;70.77;100414.28;5133230;27;20047;-71
2021/07/26 03:29:00;;;;;;;98.47;49.78;;;;;;;15.31;70.57;100415.34;5133079;27;20492;-69
2021/07/26 03:31:26;;;;;;;87.93;44.90;;;;;;;15.44;69.80;100412.47;5133189;27;20125;-73
2021/07/26 03:33:51;;;;;;;85.88;40.97;;;;;;;15.56;69.94;100407.91;5114752;27;20587;-74
2021/07/26 03:36:17;;;;;;;79.18;37.97;;;;;;;15.68;69.68;100408.66;5132537;27;20031;-71
2021/07/26 03:38:43;;;;;;;92.38;47.90;;;;;;;15.80;69.05;100409.41;5114507;27;20039;-72
2021/07/26 03:41:09;;;;;;;87.97;47.78;;;;;;;15.94;68.46;100409.09;5131569;27;20554;-73
2021/07/26 03:43:35;;;;;;;100.88;51.08;;;;;;;16.11;67.49;100409.41;5131563;27;20035;-73
2021/07/26 03:46:00;;;;;;;96.00;52.30;;;;;;;16.26;66.85;100413.41;5132957;27;20054;-69
2021/07/26 03:48:26;;;;;;;100.22;53.15;;;;;;;16.43;65.34;100408.38;5132823;27;20126;-69
2021/07/26 03:50:52;;;;;;;80.13;41.97;;;;;;;16.58;63.83;100412.31;5132969;27;20050;-74
2021/07/26 03:53:18;;;;;;;85.15;46.42;;;;;;;16.78;63.65;100412.31;5132385;27;20042;-72
2021/07/26 03:55:44;;;;;;;80.75;43.58;;;;;;;16.95;62.69;100411.66;5132395;27;20058;-70
2021/07/26 03:58:09;;;;;;;69.20;35.47;;;;;;;17.04;61.38;100412.63;5132467;27;20050;-73
2021/07/26 04:00:35;;;;;;;45.58;23.83;;;;;;;17.22;60.13;100404.75;5132932;27;20039;-73
2021/07/26 04:05:36;;;;;;;42.05;23.58;;;;;;;17.62;58.60;100411.66;5132688;27;20115;-69
2021/07/26 04:08:19;;;;;;;51.05;26.50;;;;;;;17.87;58.27;100408.44;5132410;27;20035;-69
2021/07/26 04:10:51;;;;;;;49.95;26.45;;;;;;;17.95;57.86;100396.03;5132055;27;20122;-72
2021/07/26 04:13:17;;;;;;;45.35;24.33;;;;;;;18.21;57.12;100407.91;5132305;28;20434;-71
2021/07/26 04:15:45;;;;;;;53.15;27.15;;;;;;;18.27;57.29;100400.09;5132726;28;20035;-73
2021/07/26 04:18:12;;;;;;;35.13;18.45;;;;;;;18.46;56.06;100397.47;5132864;28;20066;-71
2021/07/26 04:20:38;;;;;;;47.03;24.98;;;;;;;20.08;53.09;100399.78;5132246;28;20047;-71
2021/07/26 04:23:04;;;;;;;33.88;20.15;;;;;;;21.79;48.52;100399.16;5131179;27;20062;-72
2021/07/26 04:25:29;;;;;;;37.83;22.80;;;;;;;23.14;45.56;100390.88;5136303;27;20491;-76
2021/07/26 04:27:55;;;;;;;36.63;20.42;;;;;;;24.30;42.80;100396.69;5136972;27;20039;-75
2021/07/26 04:30:21;;;;;;;30.80;19.10;;;;;;;25.69;40.16;100397.25;5135744;27;20395;-73
2021/07/26 04:32:48;;;;;;;37.55;18.10;;;;;;;26.93;38.16;100383.63;5081083;27;20044;-74
2021/07/26 04:35:17;;;;;;;32.53;17.85;;;;;;;28.01;35.62;100389.72;5135535;27;20062;-72
2021/07/26 04:37:43;;;;;;;26.70;16.67;;;;;;;29.03;33.94;100380.72;5135396;27;20071;-72
2021/07/26 04:40:10;;;;;;;19.20;13.23;;;;;;;29.92;31.41;100387.78;5135496;27;20043;-72
2021/07/26 04:42:40;;;;;;;20.70;12.38;;;;;;;30.66;30.82;100387.63;5135081;27;20482;-73
2021/07/26 04:45:07;;;;;;;27.40;13.35;;;;;;;31.40;28.66;100379.00;5135203;27;20124;-72
2021/07/26 04:47:33;;;;;;;23.13;12.43;;;;;;;31.73;28.17;100372.09;5135298;27;20051;-72
2021/07/26 04:50:00;;;;;;;21.15;12.90;;;;;;;32.18;26.71;100375.16;5135128;27;20403;-72
2021/07/26 04:52:26;;;;;;;24.50;12.47;;;;;;;32.82;26.24;100377.66;5135970;27;20043;-73
2021/07/26 04:54:52;;;;;;;20.15;11.95;;;;;;;33.47;25.69;100369.91;5136221;27;20055;-70
2021/07/26 04:57:36;;;;;;;21.00;12.68;;;;;;;33.15;26.27;100366.91;5135636;27;20450;-70
2021/07/26 05:00:03;;;;;;;27.73;13.20;;;;;;;34.05;24.54;100377.75;5136136;27;20047;-74
2021/07/26 05:02:29;;;;;;;20.75;12.82;;;;;;;33.90;24.83;100370.16;5135934;27;20034;-71
2021/07/26 05:04:55;;;;;;;23.50;12.87;;;;;;;34.60;23.75;100375.00;5136143;27;20365;-70
2021/07/26 05:07:21;;;;;;;19.70;12.23;;;;;;;35.15;23.57;100375.69;5135860;27;20047;-70
2021/07/26 05:09:47;;;;;;;21.85;12.80;;;;;;;35.19;23.12;100370.50;5135584;27;20365;-72
2021/07/26 05:12:13;;;;;;;20.97;12.73;;;;;;;35.59;22.73;100375.41;5135972;27;20095;-71
2021/07/26 05:14:43;;;;;;;22.85;14.18;;;;;;;35.82;22.43;100373.28;5135915;27;20043;-71
2021/07/26 05:17:09;;;;;;;27.23;14.40;;;;;;;36.62;21.41;100360.25;5135921;27;20096;-71
2021/07/26 05:19:35;;;;;;;26.95;13.90;;;;;;;37.07;21.03;100358.56;5135355;27;20484;-72
2021/07/26 05:22:02;;;;;;;21.88;13.02;;;;;;;37.37;20.84;100357.69;5135880;27;20035;-74
2021/07/26 05:24:28;;;;;;;28.20;13.30;;;;;;;37.71;20.11;100358.91;5136002;27;20109;-73
2021/07/26 05:27:01;;;;;;;26.63;14.50;;;;;;;38.08;19.66;100360.38;5135284;27;20074;-73
2021/07/26 05:29:27;;;;;;;28.27;13.27;;;;;;;37.52;20.48;100358.72;5135252;27;20292;-72
2021/07/26 05:31:53;;;;;;;22.88;13.55;;;;;;;38.24;19.67;100363.06;5135315;27;20487;-75
2021/07/26 05:34:19;;;;;;;22.08;12.02;;;;;;;38.90;19.29;100360.88;5135075;27;20091;-75
2021/07/26 05:36:45;;;;;;;22.88;11.65;;;;;;;39.54;18.83;100355.19;5134272;27;20130;-71
2021/07/26 05:39:11;;;;;;;15.80;10.20;;;;;;;39.88;18.02;100354.22;5135410;27;20035;-71
2021/07/26 05:41:36;;;;;;;20.85;10.43;;;;;;;39.96;17.80;100350.78;5135352;27;20498;-71
2021/07/26 05:44:02;;;;;;;19.52;10.40;;;;;;;39.41;18.03;100357.56;5135373;27;20516;-72
2021/07/26 05:46:28;;;;;;;14.60;9.38;;;;;;;39.59;18.16;100360.66;5134986;27;20581;-70
2021/07/26 05:48:54;;;;;;;15.85;9.85;;;;;;;38.57;17.99;100355.06;5135612;27;20121;-72
2021/07/26 05:51:19;;;;;;;13.60;7.95;;;;;;;39.66;17.49;100352.03;5134951;27;20130;-72
2021/07/26 05:53:45;;;;;;;14.60;9.70;;;;;;;40.06;17.55;100361.69;5134944;27;20127;-73
2021/07/26 05:56:12;;;;;;;15.40;8.63;;;;;;;39.82;17.40;100355.41;5116528;27;20034;-71
2021/07/26 05:58:44;;;;;;;10.93;6.40;;;;;;;40.54;16.28;100354.31;5134786;27;20045;-72
2021/07/26 06:03:49;;;;;;;11.38;4.55;;;;;;;41.19;14.90;100347.09;5135276;27;20126;-73
2021/07/26 06:06:14;;;;;;;7.40;4.03;;;;;;;41.43;14.19;100346.06;5135017;27;20047;-71
2021/07/26 06:08:40;;;;;;;6.53;4.05;;;;;;;40.24;14.48;100339.84;5135231;27;20380;-73
2021/07/26 06:11:06;;;;;;;7.70;3.60;;;;;;;39.96;15.26;100339.69;5135483;27;20134;-74
2021/07/26 06:13:32;;;;;;;6.50;3.80;;;;;;;40.51;14.89;100338.28;5135804;27;20135;-72
2021/07/26 06:15:58;;;;;;;8.55;3.67;;;;;;;39.56;15.39;100336.34;5135395;27;20038;-73
2021/07/26 06:18:24;;;;;;;;;;;;;;;39.90;14.85;100347.25;5135525;27;20042;-75
2021/07/26 06:20:49;;;;;;;6.47;3.25;;;;;;;40.02;14.36;100344.03;5135595;27;19921;-73
2021/07/26 06:23:15;;;;;;;8.88;3.28;;;;;;;40.65;14.25;100339.16;5135231;27;20144;-72
2021/07/26 06:25:41;;;;;;;10.70;3.92;;;;;;;40.30;14.02;100346.13;5134642;27;20050;-72
2021/07/26 06:28:07;;;;;;;6.38;3.88;;;;;;;40.00;14.35;100339.91;5134624;27;20125;-73
2021/07/26 06:30:32;;;;;;;9.27;4.60;;;;;;;39.79;13.92;100338.28;5134722;27;20510;-79
2021/07/26 06:32:58;;;;;;;5.90;3.47;;;;;;;39.57;14.24;100335.25;5135122;27;20130;-74
2021/07/26 06:35:24;;;;;;;4.82;2.97;;;;;;;39.60;14.52;100332.66;5134308;27;20079;-72
2021/07/26 06:37:50;;;;;;;6.47;3.30;;;;;;;41.36;13.38;100341.72;5116078;27;20038;-77
2021/07/26 06:40:15;;;;;;;;;;;;;;;42.74;12.24;100340.81;5135088;27;20314;-73
2021/07/26 06:42:42;;;;;;;8.55;3.35;;;;;;;43.16;12.17;100338.53;5133647;27;19967;-74
2021/07/26 06:45:09;;;;;;;7.45;3.13;;;;;;;43.13;12.13;100334.44;5099125;27;20099;-72
2021/07/26 06:47:36;;;;;;;5.82;3.13;;;;;;;42.04;12.74;100336.34;5133763;27;20066;-75
2021/07/26 06:50:03;;;;;;;5.10;3.00;;;;;;;42.95;11.82;100344.66;5115587;27;20054;-74
2021/07/26 06:52:29;;;;;;;5.68;3.30;;;;;;;43.84;11.32;100340.16;5133705;27;20050;-73
2021/07/26 06:54:55;;;;;;;7.32;3.38;;;;;;;44.70;10.89;100332.03;5134105;27;20047;-77
2021/07/26 06:57:21;;;;;;;5.93;3.58;;;;;;;43.50;10.87;100336.16;5133458;27;20035;-75
2021/07/26 06:59:47;;;;;;;4.68;2.75;;;;;;;43.15;11.60;100345.25;5134169;27;20042;-75
2021/07/26 07:02:13;;;;;;;7.25;3.08;;;;;;;44.05;10.99;100341.16;5134517;27;20467;-76
2021/07/26 07:04:38;;;;;;;5.47;2.90;;;;;;;44.40;10.80;100334.75;5133834;27;20099;-74
2021/07/26 07:07:06;;;;;;;7.28;3.20;;;;;;;42.86;11.18;100349.38;5133794;27;20050;-72
2021/07/26 07:09:32;;;;;;;10.07;3.05;;;;;;;43.33;10.96;100336.94;5115188;27;20047;-77
2021/07/26 07:11:58;;;;;;;7.10;3.00;;;;;;;44.16;10.93;100336.06;5133711;27;20412;-72
2021/07/26 07:14:24;;;;;;;5.88;3.13;;;;;;;44.60;10.31;100338.78;5133573;27;20045;-74
2021/07/26 07:16:52;;;;;;;5.50;3.38;;;;;;;45.18;10.06;100336.47;5133771;27;20050;-75
2021/07/26 07:19:17;;;;;;;6.75;3.35;;;;;;;44.11;10.24;100341.81;5115333;27;20043;-73
2021/07/26 07:21:43;;;;;;;5.20;3.05;;;;;;;42.61;11.07;100346.09;5133531;27;20046;-74
2021/07/26 07:24:09;;;;;;;5.40;3.33;;;;;;;41.68;12.37;100339.94;5133406;27;20499;-74
2021/07/26 07:26:35;;;;;;;7.32;3.22;;;;;;;42.29;11.83;100350.00;5133029;27;20057;-72
2021/07/26 07:29:02;;;;;;;8.48;3.60;;;;;;;43.21;11.15;100338.41;5133342;27;20034;-72
2021/07/26 07:31:28;;;;;;;5.15;3.33;;;;;;;42.95;11.36;100341.06;5133225;27;20049;-73
2021/07/26 07:33:57;;;;;;;6.88;3.20;;;;;;;44.39;10.54;100338.69;5133278;27;20039;-75
2021/07/26 07:36:24;;;;;;;4.75;3.13;;;;;;;44.78;10.13;100339.59;5132853;27;20128;-73
2021/07/26 07:38:51;;;;;;;10.05;4.72;;;;;;;45.49;9.70;100337.25;5064215;27;20062;-74
2021/07/26 07:41:17;;;;;;;6.97;4.03;;;;;;;45.05;10.21;100334.69;5114825;27;20042;-74
2021/07/26 07:43:44;;;;;;;7.97;3.45;;;;;;;44.74;10.07;100333.03;5097247;27;20074;-74
2021/07/26 07:46:10;;;;;;;8.13;3.53;;;;;;;43.89;10.98;100340.81;5132715;27;20038;-73
2021/07/26 07:48:37;;;;;;;7.60;3.42;;;;;;;43.36;11.10;100339.91;5132998;27;20058;-76
2021/07/26 07:51:07;;;;;;;6.63;3.38;;;;;;;42.06;11.86;100336.06;5132669;27;20043;-75
2021/07/26 07:53:33;;;;;;;6.53;2.90;;;;;;;40.38;13.00;100331.59;5132496;27;20046;-77
2021/07/26 07:55:59;;;;;;;8.43;3.10;;;;;;;40.04;12.71;100335.41;5114933;27;20046;-74
2021/07/26 07:58:25;;;;;;;;;;;;;;;39.83;13.14;100332.13;5132862;27;20457;-74
2021/07/26 08:00:52;;;;;;;6.55;3.28;;;;;;;39.90;13.28;100335.34;5133094;27;19992;-76
2021/07/26 08:03:20;;;;;;;8.88;2.97;;;;;;;39.95;13.42;100338.03;5133022;27;20046;-77
2021/07/26 08:05:47;;;;;;;14.60;3.75;;;;;;;38.82;14.03;100348.50;5132466;27;20600;-76
2021/07/26 08:08:13;;;;;;;10.52;3.70;;;;;;;36.86;15.88;100342.06;5132895;27;20039;-73
2021/07/26 08:10:39;;;;;;;9.82;3.38;;;;;;;35.52;17.38;100339.06;5133047;27;20468;-76
2021/07/26 08:13:04;;;;;;;9.57;3.10;;;;;;;35.02;17.92;100333.00;5134642;28;20047;-77
2021/07/26 08:15:30;;;;;;;5.97;3.10;;;;;;;34.30;17.88;100335.97;5117031;28;20043;-73
2021/07/26 08:17:56;;;;;;;8.13;3.40;;;;;;;35.71;17.06;100333.06;5132837;28;20053;-74
2021/07/26 08:20:22;;;;;;;12.13;5.13;;;;;;;34.71;17.55;100335.50;5132457;28;20088;-77
2021/07/26 08:22:49;;;;;;;9.02;4.32;;;;;;;33.70;18.74;100341.34;5132303;27;20043;-75
2021/07/26 08:25:15;;;;;;;7.07;3.23;;;;;;;33.05;19.01;100351.19;5132843;28;20046;-80
2021/07/26 08:27:51;;;;;;;8.90;3.00;;;;;;;32.59;19.90;100346.59;5132425;28;20287;-74
2021/07/26 08:30:28;;;;;;;14.85;6.25;;;;;;;32.19;20.94;100341.19;5132482;28;20539;-73
2021/07/26 08:32:54;;;;;;;9.20;5.20;;;;;;;32.52;20.76;100336.88;5132808;28;20043;-74
2021/07/26 08:35:20;;;;;;;7.72;3.40;;;;;;;34.53;18.45;100342.22;5132161;27;20519;-75
2021/07/26 08:37:48;;;;;;;7.55;3.28;;;;;;;35.82;17.30;100329.25;5114346;28;20039;-73
2021/07/26 08:40:14;;;;;;;6.18;2.58;;;;;;;35.18;17.31;100339.44;5132529;27;20035;-77
2021/07/26 08:42:40;;;;;;;8.68;3.97;;;;;;;34.93;17.38;100340.94;5096986;28;20381;-75
2021/07/26 08:45:08;;;;;;;15.27;7.18;;;;;;;35.05;17.96;100331.66;5114288;28;20061;-76
2021/07/26 08:47:34;;;;;;;8.00;3.88;;;;;;;33.67;18.94;100335.56;5132083;28;20066;-74
2021/07/26 08:50:04;;;;;;;13.30;4.00;;;;;;;33.89;19.28;100338.31;5113829;28;20395;-76
2021/07/26 08:52:39;;;;;;;5.13;2.90;;;;;;;34.52;18.56;100332.34;5132231;28;20518;-74
2021/07/26 08:55:05;;;;;;;8.88;4.30;;;;;;;35.22;18.06;100326.78;5132225;27;20059;-73
2021/07/26 08:57:33;;;;;;;10.18;5.63;;;;;;;36.86;16.67;100328.28;5113294;28;20412;-73
2021/07/26 09:00:00;;;;;;;9.68;3.50;;;;;;;37.44;15.42;100328.97;5132287;28;20051;-76
2021/07/26 09:02:26;;;;;;;8.27;3.72;;;;;;;38.85;14.56;100330.53;5132313;28;20046;-73
2021/07/26 09:04:52;;;;;;;6.47;3.50;;;;;;;39.53;13.59;100320.31;5132217;27;20598;-73
2021/07/26 09:07:24;;;;;;;8.52;2.95;;;;;;;39.43;13.75;100319.34;5132172;28;20040;-73
2021/07/26 09:09:50;;;;;;;4.72;2.63;;;;;;;38.62;13.93;100327.38;5133188;27;20066;-77
2021/07/26 09:12:33;;;;;;;8.48;3.45;;;;;;;36.64;16.30;100313.94;5117173;27;20079;-73
2021/07/26 09:15:00;;;;;;;7.28;3.13;;;;;;;35.34;17.18;100323.00;5117395;27;20384;-75
2021/07/26 09:17:38;;;;;;;17.25;8.82;;;;;;;34.41;18.29;100316.84;5135815;27;20031;-73
2021/07/26 09:20:05;;;;;;;5.40;2.92;;;;;;;33.92;18.47;100324.09;5135874;27;20039;-73
2021/07/26 09:22:33;;;;;;;6.55;2.95;;;;;;;33.11;19.45;100316.44;5116951;27;20054;-76
2021/07/26 09:25:30;;;;;;;8.02;3.55;;;;;;;32.64;19.81;100318.47;5117578;27;20039;-75
2021/07/26 09:28:08;;;;;;;4.95;2.80;;;;;;;32.19;19.78;100314.72;5136021;27;20043;-77
2021/07/26 09:30:36;;;;;;;8.68;3.00;;;;;;;31.89;20.53;100313.03;5117328;27;20388;-74
2021/07/26 09:33:03;;;;;;;5.00;2.90;;;;;;;32.31;20.08;100308.34;5117626;27;20043;-77
2021/07/26 09:35:29;;;;;;;6.03;3.35;;;;;;;32.25;20.29;100310.13;5117214;27;20058;-73
2021/07/26 09:37:58;;;;;;;6.57;3.00;;;;;;;31.99;20.73;100309.66;5135422;27;20039;-74
2021/07/26 09:40:28;;;;;;;8.32;3.33;;;;;;;31.57;21.61;100298.97;5135586;27;20502;-75
2021/07/26 09:42:53;;;;;;;8.88;3.67;;;;;;;31.28;22.39;100301.69;5135803;27;20043;-74
2021/07/26 09:45:20;;;;;;;8.43;4.10;;;;;;;31.55;21.31;100309.31;5135700;27;20133;-74
2021/07/26 09:48:06;;;;;;;8.43;4.30;;;;;;;30.96;21.68;100315.69;5135412;27;20130;-77
2021/07/26 09:50:34;;;;;;;13.52;3.90;;;;;;;30.55;21.98;100303.81;5134868;27;20092;-74
2021/07/26 09:53:08;;;;;;;5.13;3.00;;;;;;;30.84;21.98;100302.03;5135387;27;20042;-76
2021/07/26 09:55:34;;;;;;;8.27;3.03;;;;;;;31.24;21.96;100295.84;5116277;27;20058;-73
2021/07/26 09:58:01;;;;;;;8.60;6.20;;;;;;;31.46;21.61;100298.75;5135488;27;20045;-73
2021/07/26 10:00:27;;;;;;;7.97;3.67;;;;;;;31.93;21.49;100299.69;5135202;27;20101;-75
2021/07/26 10:02:54;;;;;;;8.17;3.83;;;;;;;32.61;20.50;100291.56;5133280;27;20031;-75
2021/07/26 10:05:23;;;;;;;8.48;3.10;;;;;;;32.87;18.48;100291.97;5134840;27;20044;-75
2021/07/26 10:07:51;;;;;;;10.60;3.58;;;;;;;32.80;19.22;100294.91;5134180;27;20474;-75
2021/07/26 10:10:17;;;;;;;5.60;3.05;;;;;;;32.40;19.06;100291.25;5116347;27;20404;-73
2021/07/26 10:12:44;;;;;;;8.52;3.58;;;;;;;32.48;19.10;100286.44;5134534;27;20047;-74
2021/07/26 10:15:11;;;;;;;7.15;3.65;;;;;;;32.24;19.58;100283.88;5134457;27;20031;-73
2021/07/26 10:17:40;;;;;;;7.00;3.23;;;;;;;32.05;19.40;100288.69;5134382;27;20042;-76
2021/07/26 10:20:08;;;;;;;5.78;3.13;;;;;;;32.34;19.61;100286.75;5134660;27;20323;-73
2021/07/26 10:22:34;;;;;;;8.75;3.88;;;;;;;34.26;17.44;100288.16;5134117;27;20051;-73
2021/07/26 10:25:11;;;;;;;;;;;;;;;35.57;16.75;100275.78;5116766;27;20488;-74
2021/07/26 10:27:36;;;;;;;;;;;;;;;35.25;17.11;100278.66;5134361;27;19979;-73
2021/07/26 10:30:03;;;;;;;8.13;3.57;;;;;;;35.03;17.25;100281.59;5116089;27;20272;-75
2021/07/26 10:32:28;;;;;;;9.13;3.72;;;;;;;35.24;17.30;100274.25;5134421;27;20142;-75
2021/07/26 10:34:57;;;;;;;7.27;3.70;;;;;;;36.19;16.38;100273.16;5134322;27;20063;-77
2021/07/26 10:37:47;;;;;;;7.47;3.30;;;;;;;36.75;15.99;100274.22;5116176;27;20398;-74
2021/07/26 10:40:19;;;;;;;8.00;3.78;;;;;;;37.17;15.54;100270.25;5121101;27;20050;-74
2021/07/26 10:42:45;;;;;;;6.78;3.10;;;;;;;36.99;14.91;100271.72;5134179;27;20472;-78
2021/07/26 10:45:31;;;;;;;4.40;3.10;;;;;;;36.53;15.22;100269.84;5134564;27;20043;-81
2021/07/26 10:48:34;;;;;;;5.53;3.25;;;;;;;35.29;16.37;100261.38;5134076;27;20292;-75
2021/07/26 10:51:01;;;;;;;7.60;3.67;;;;;;;34.88;17.08;100269.44;5115895;27;20035;-76
2021/07/26 10:53:50;;;;;;;6.43;3.25;;;;;;;34.00;17.18;100265.97;5116013;27;20057;-77
2021/07/26 10:56:16;;;;;;;7.72;3.83;;;;;;;33.97;17.72;100269.22;5120743;27;20146;-75
2021/07/26 10:59:01;;;;;;;8.00;3.40;;;;;;;34.12;17.20;100270.44;5134139;27;20129;-74
2021/07/26 11:01:27;;;;;;;10.02;3.55;;;;;;;34.44;17.79;100261.41;5134391;27;20031;-75
2021/07/26 11:03:54;;;;;;;7.80;3.47;;;;;;;34.76;17.51;100252.28;5115980;27;20046;-75
2021/07/26 11:06:40;;;;;;;7.65;3.28;;;;;;;34.40;17.52;100266.59;5133904;27;20078;-73
2021/07/26 11:09:19;;;;;;;30.60;16.10;;;;;;;34.49;17.32;100265.03;5116326;27;20498;-74
2021/07/26 11:11:45;;;;;;;9.43;3.53;;;;;;;35.08;17.59;100259.59;5134189;27;20043;-73
2021/07/26 11:14:14;;;;;;;6.78;3.55;;;;;;;35.21;17.36;100264.63;5135412;27;20123;-74
2021/07/26 11:16:48;;;;;;;8.30;3.60;;;;;;;34.40;17.52;100263.84;5133564;27;20043;-76
2021/07/26 11:19:33;;;;;;;10.38;3.03;;;;;;;34.58;17.32;100257.13;5133819;27;20042;-74
2021/07/26 11:22:00;;;;;;;7.68;3.38;;;;;;;34.28;17.62;100246.69;5134190;27;20058;-75
2021/07/26 11:24:41;;;;;;;7.00;3.22;;;;;;;34.24;17.93;100245.56;5133708;27;20039;-73